createdAt,value
2022-08-20T00:00:21.113Z,29.48
2022-08-20T00:02:52.152Z,23.13
2022-08-20T00:05:26.411Z,29.30
2022-08-20T00:07:56.235Z,25.60
2022-08-20T00:10:25.930Z,28.13
2022-08-20T00:12:55.504Z,20.13
2022-08-20T00:15:31.639Z,24.55
2022-08-20T00:18:01.272Z,25.15
2022-08-20T00:20:31.819Z,17.65
2022-08-20T00:23:01.853Z,27.88
2022-08-20T00:25:31.574Z,26.15
2022-08-20T00:28:01.130Z,19.75
2022-08-20T00:30:30.922Z,24.33
2022-08-20T00:33:02.129Z,20.85
2022-08-20T00:35:32.999Z,20.17
2022-08-20T00:38:02.797Z,24.60
2022-08-20T00:40:40.078Z,25.40
2022-08-20T00:43:11.011Z,33.47
2022-08-20T00:45:40.611Z,24.50
2022-08-20T00:48:10.024Z,25.63
2022-08-20T00:50:39.665Z,23.48
2022-08-20T00:53:09.851Z,21.80
2022-08-20T00:55:39.478Z,17.23
2022-08-20T00:58:11.003Z,14.65
2022-08-20T01:00:46.149Z,14.18
2022-08-20T01:03:16.518Z,14.00
2022-08-20T01:05:46.866Z,14.68
2022-08-20T01:08:18.158Z,11.70
2022-08-20T01:10:49.569Z,16.92
2022-08-20T01:13:22.091Z,11.75
2022-08-20T01:15:53.072Z,16.35
2022-08-20T01:18:24.387Z,18.95
2022-08-20T01:20:55.727Z,13.38
2022-08-20T01:23:36.251Z,12.93
2022-08-20T01:26:25.546Z,14.32
2022-08-20T01:29:00.193Z,14.02
2022-08-20T01:31:33.365Z,11.85
2022-08-20T01:34:03.407Z,14.60
2022-08-20T01:36:35.216Z,10.63
2022-08-20T01:39:05.022Z,11.35
2022-08-20T01:41:52.726Z,7.20
2022-08-20T01:44:22.515Z,12.05
2022-08-20T01:46:57.805Z,9.43
2022-08-20T01:49:27.499Z,7.97
2022-08-20T01:51:58.908Z,8.18
2022-08-20T01:54:28.600Z,7.28
2022-08-20T01:56:59.718Z,6.57
2022-08-20T01:59:29.281Z,7.00
2022-08-20T02:01:59.234Z,5.45
2022-08-20T02:04:29.007Z,3.95
2022-08-20T02:06:59.523Z,6.40
2022-08-20T02:09:29.824Z,4.72
2022-08-20T02:11:59.696Z,5.53
2022-08-20T02:14:29.561Z,5.65
2022-08-20T02:17:01.814Z,4.80
2022-08-20T02:19:35.843Z,7.05
2022-08-20T02:22:07.764Z,5.47
2022-08-20T02:24:37.380Z,8.57
2022-08-20T02:27:06.942Z,4.40
2022-08-20T02:29:36.537Z,4.30
2022-08-20T02:32:32.537Z,7.90
2022-08-20T02:34:57.321Z,5.22
2022-08-20T02:37:26.924Z,4.82
2022-08-20T02:39:56.553Z,4.78
2022-08-20T02:42:26.460Z,4.28
2022-08-20T02:44:56.552Z,9.15
2022-08-20T02:47:29.006Z,7.72
2022-08-20T02:50:00.751Z,7.60
2022-08-20T02:52:30.527Z,7.18
2022-08-20T02:55:00.372Z,6.18
2022-08-20T02:57:30.003Z,7.82
2022-08-20T02:59:59.746Z,5.55
2022-08-20T03:02:29.385Z,5.57
2022-08-20T03:04:59.111Z,5.45
2022-08-20T03:07:28.845Z,5.47
2022-08-20T03:09:58.588Z,8.90
2022-08-20T03:12:28.140Z,7.65
2022-08-20T03:14:57.840Z,8.80
2022-08-20T03:17:27.450Z,7.75
2022-08-20T03:19:57.471Z,6.38
2022-08-20T03:22:27.100Z,7.78
2022-08-20T03:24:57.111Z,10.23
2022-08-20T03:27:29.971Z,9.85
2022-08-20T03:30:07.713Z,11.90
2022-08-20T03:32:40.687Z,6.70
2022-08-20T03:35:11.198Z,7.97
2022-08-20T03:37:40.920Z,8.43
2022-08-20T03:40:20.391Z,8.98
2022-08-20T03:42:50.092Z,10.00
2022-08-20T03:45:20.896Z,8.38
2022-08-20T03:47:50.920Z,11.00
2022-08-20T03:50:23.637Z,8.88
2022-08-20T03:52:53.964Z,9.48
2022-08-20T03:55:24.280Z,9.13
2022-08-20T03:57:55.374Z,12.25
2022-08-20T04:00:26.433Z,11.40
2022-08-20T04:02:58.540Z,11.25
2022-08-20T04:05:28.458Z,10.23
2022-08-20T04:08:02.953Z,9.73
2022-08-20T04:10:33.347Z,13.52
2022-08-20T04:13:03.173Z,15.32
2022-08-20T04:15:33.668Z,14.40
2022-08-20T04:18:04.392Z,13.23
2022-08-20T04:20:40.550Z,14.82
2022-08-20T04:23:10.588Z,12.93
2022-08-20T04:25:43.222Z,13.52
2022-08-20T04:28:28.317Z,15.05
2022-08-20T04:31:01.024Z,14.80
2022-08-20T04:33:35.328Z,12.35
2022-08-20T04:36:06.968Z,12.27
2022-08-20T04:38:47.872Z,13.00
2022-08-20T04:41:22.743Z,12.50
2022-08-20T04:43:55.249Z,11.30
2022-08-20T04:46:26.923Z,10.80
2022-08-20T04:48:57.021Z,17.55
2022-08-20T04:51:28.085Z,12.10
2022-08-20T04:53:58.763Z,11.55
2022-08-20T04:56:29.495Z,10.82
2022-08-20T04:58:59.787Z,11.82
2022-08-20T05:01:29.683Z,12.05
2022-08-20T05:03:59.389Z,9.43
2022-08-20T05:06:30.014Z,10.93
2022-08-20T05:09:00.050Z,9.77
2022-08-20T05:11:33.549Z,14.57
2022-08-20T05:14:09.839Z,8.55
2022-08-20T05:16:40.327Z,9.95
2022-08-20T05:19:10.395Z,4.32
2022-08-20T05:21:40.688Z,9.40
2022-08-20T05:24:11.467Z,5.65
2022-08-20T05:26:41.039Z,4.90
2022-08-20T05:29:10.647Z,5.40
2022-08-20T05:31:40.730Z,5.47
2022-08-20T05:34:11.953Z,3.08
2022-08-20T05:36:42.600Z,2.38
2022-08-20T05:39:12.308Z,6.68
2022-08-20T05:41:41.863Z,3.00
2022-08-20T05:44:14.651Z,5.10
2022-08-20T05:46:45.101Z,2.92
2022-08-20T05:49:15.426Z,3.10
2022-08-20T05:51:45.421Z,3.03
2022-08-20T05:54:15.097Z,3.95
2022-08-20T05:56:44.683Z,3.10
2022-08-20T05:59:15.321Z,2.40
2022-08-20T06:01:45.015Z,2.25
2022-08-20T06:04:28.085Z,3.08
2022-08-20T06:07:04.734Z,2.88
2022-08-20T06:09:34.722Z,6.15
2022-08-20T06:12:04.605Z,6.95
2022-08-20T06:14:34.473Z,6.82
2022-08-20T06:17:13.343Z,5.20
2022-08-20T06:19:44.201Z,5.28
2022-08-20T06:22:19.587Z,5.65
2022-08-20T06:24:54.390Z,5.18
2022-08-20T06:27:23.872Z,7.88
2022-08-20T06:29:53.463Z,6.63
2022-08-20T06:32:29.783Z,4.50
2022-08-20T06:35:03.967Z,5.25
2022-08-20T06:37:33.811Z,6.22
2022-08-20T06:40:04.605Z,6.43
2022-08-20T06:42:34.220Z,6.63
2022-08-20T06:45:06.317Z,5.60
2022-08-20T06:47:35.908Z,8.82
2022-08-20T06:50:05.858Z,27.88
2022-08-20T06:52:51.541Z,14.13
2022-08-20T06:55:25.448Z,8.60
2022-08-20T06:58:01.633Z,7.32
2022-08-20T07:00:32.779Z,6.85
2022-08-20T07:03:02.941Z,8.75
2022-08-20T07:05:33.073Z,3.00
2022-08-20T07:08:02.586Z,5.10
2022-08-20T07:10:32.487Z,5.55
2022-08-20T07:13:02.518Z,6.00
2022-08-20T07:15:32.079Z,5.10
2022-08-20T07:18:02.865Z,8.30
2022-08-20T07:20:33.316Z,6.10
2022-08-20T07:23:03.377Z,5.60
2022-08-20T07:25:34.933Z,5.43
2022-08-20T07:28:07.923Z,5.63
2022-08-20T07:30:57.844Z,4.25
2022-08-20T07:33:28.689Z,7.78
2022-08-20T07:35:59.532Z,7.57
2022-08-20T07:38:29.559Z,4.38
2022-08-20T07:41:06.095Z,10.75
2022-08-20T07:43:35.832Z,5.10
2022-08-20T07:46:10.185Z,5.88
2022-08-20T07:48:41.409Z,7.38
2022-08-20T07:51:12.113Z,7.75
2022-08-20T07:53:42.396Z,8.95
2022-08-20T07:56:12.954Z,8.27
2022-08-20T07:58:51.526Z,11.50
2022-08-20T08:01:21.737Z,11.75
2022-08-20T08:03:51.642Z,11.25
2022-08-20T08:06:29.437Z,14.18
2022-08-20T08:11:29.354Z,13.63
2022-08-20T08:13:59.114Z,17.48
2022-08-20T08:16:28.664Z,18.33
2022-08-20T08:19:02.689Z,18.23
2022-08-20T08:21:33.810Z,16.88
2022-08-20T08:24:03.928Z,21.90
2022-08-20T08:26:33.481Z,23.80
2022-08-20T08:29:03.975Z,20.20
2022-08-20T08:31:33.453Z,20.98
2022-08-20T08:34:03.043Z,20.48
2022-08-20T08:36:32.578Z,20.25
2022-08-20T08:39:02.194Z,25.83
2022-08-20T08:41:39.092Z,23.92
2022-08-20T08:44:14.099Z,22.40
2022-08-20T08:46:47.157Z,25.00
2022-08-20T08:49:17.436Z,27.73
2022-08-20T08:51:50.641Z,27.38
2022-08-20T08:54:22.124Z,23.88
2022-08-20T08:56:52.050Z,31.00
2022-08-20T08:59:21.898Z,27.38
2022-08-20T09:01:55.232Z,26.80
2022-08-20T09:04:26.839Z,34.03
2022-08-20T09:06:56.795Z,35.92
2022-08-20T09:09:36.002Z,25.98
2022-08-20T09:12:10.882Z,32.08
2022-08-20T09:14:40.679Z,35.25
2022-08-20T09:17:10.344Z,32.08
2022-08-20T09:19:39.971Z,34.38
2022-08-20T09:22:13.015Z,34.13
2022-08-20T09:24:42.684Z,34.05
2022-08-20T09:27:12.277Z,34.85
2022-08-20T09:29:41.904Z,38.70
2022-08-20T09:32:20.812Z,35.80
2022-08-20T09:34:53.333Z,34.15
2022-08-20T09:37:23.009Z,36.05
2022-08-20T09:39:52.782Z,33.13
2022-08-20T09:42:23.883Z,37.15
2022-08-20T09:44:53.831Z,38.08
2022-08-20T09:47:23.465Z,33.15
2022-08-20T09:49:53.114Z,33.55
2022-08-20T09:52:38.965Z,32.78
2022-08-20T09:55:27.991Z,33.17
2022-08-20T09:57:58.020Z,36.92
2022-08-20T10:00:27.919Z,36.38
2022-08-20T10:02:58.575Z,30.90
2022-08-20T10:05:28.219Z,50.10
2022-08-20T10:07:58.016Z,42.38
2022-08-20T10:10:27.775Z,35.75
2022-08-20T10:12:57.438Z,40.40
2022-08-20T10:15:27.061Z,39.30
2022-08-20T10:17:58.737Z,37.45
2022-08-20T10:20:28.515Z,39.55
2022-08-20T10:22:58.094Z,38.45
2022-08-20T10:25:27.738Z,35.40
2022-08-20T10:27:57.814Z,40.40
2022-08-20T10:30:27.615Z,34.20
2022-08-20T10:32:57.753Z,33.67
2022-08-20T10:35:27.302Z,36.28
2022-08-20T10:37:57.123Z,31.15
2022-08-20T10:40:26.915Z,27.75
2022-08-20T10:42:56.576Z,34.70
2022-08-20T10:45:27.159Z,28.83
2022-08-20T10:47:56.847Z,32.55
2022-08-20T10:50:26.480Z,28.38
2022-08-20T10:53:00.282Z,23.05
2022-08-20T10:55:29.897Z,23.02
2022-08-20T10:57:59.552Z,25.08
2022-08-20T11:00:29.152Z,24.05
2022-08-20T11:02:59.017Z,27.40
2022-08-20T11:05:28.738Z,26.05
2022-08-20T11:07:59.111Z,26.50
2022-08-20T11:10:29.333Z,27.27
2022-08-20T11:12:59.184Z,21.17
2022-08-20T11:15:28.854Z,25.65
2022-08-20T11:17:58.610Z,23.00
2022-08-20T11:20:28.964Z,23.80
2022-08-20T11:22:58.648Z,19.95
2022-08-20T11:25:28.560Z,26.88
2022-08-20T11:27:58.490Z,23.65
2022-08-20T11:30:34.937Z,22.17
2022-08-20T11:33:04.596Z,23.48
2022-08-20T11:35:48.117Z,63.85
2022-08-20T11:38:18.353Z,23.17
2022-08-20T11:40:48.153Z,26.88
2022-08-20T11:43:18.453Z,25.67
2022-08-20T11:45:49.547Z,25.95
2022-08-20T11:48:19.380Z,26.45
2022-08-20T11:50:49.213Z,21.75
2022-08-20T11:53:18.958Z,27.00
2022-08-20T11:55:48.732Z,25.15
2022-08-20T11:58:18.569Z,30.77
2022-08-20T12:00:48.100Z,23.83
2022-08-20T12:03:17.673Z,22.98
2022-08-20T12:05:47.538Z,29.23
2022-08-20T12:08:26.944Z,22.63
2022-08-20T12:10:58.381Z,22.50
2022-08-20T12:13:30.521Z,21.65
2022-08-20T12:16:04.136Z,22.92
2022-08-20T12:18:33.906Z,25.48
2022-08-20T12:21:03.613Z,20.67
2022-08-20T12:23:33.128Z,24.38
2022-08-20T12:26:04.880Z,22.70
2022-08-20T12:28:35.023Z,26.30
2022-08-20T12:31:04.782Z,30.95
2022-08-20T12:33:37.132Z,23.05
2022-08-20T12:36:07.452Z,25.10
2022-08-20T12:38:37.084Z,23.48
2022-08-20T12:41:06.695Z,26.65
2022-08-20T12:43:36.309Z,32.88
2022-08-20T12:46:06.030Z,27.58
2022-08-20T12:48:35.662Z,27.67
2022-08-20T12:51:05.223Z,25.13
2022-08-20T12:53:34.852Z,27.35
2022-08-20T12:56:06.294Z,24.75
2022-08-20T12:58:36.312Z,25.67
2022-08-20T13:01:06.269Z,26.73
2022-08-20T13:03:43.113Z,29.08
2022-08-20T13:06:14.918Z,28.88
2022-08-20T13:08:44.443Z,26.73
2022-08-20T13:11:14.039Z,29.40
2022-08-20T13:13:44.924Z,27.98
2022-08-20T13:16:14.475Z,29.33
2022-08-20T13:18:44.333Z,24.25
2022-08-20T13:21:14.031Z,26.25
2022-08-20T13:23:43.611Z,28.98
2022-08-20T13:26:13.409Z,30.02
2022-08-20T13:28:43.562Z,36.50
2022-08-20T13:31:13.671Z,31.45
2022-08-20T13:33:43.560Z,35.65
2022-08-20T13:36:13.310Z,20.70
2022-08-20T13:38:43.017Z,27.60
2022-08-20T13:41:12.970Z,34.47
2022-08-20T13:43:42.723Z,25.40
2022-08-20T13:46:12.785Z,26.88
2022-08-20T13:48:42.498Z,28.45
2022-08-20T13:51:12.270Z,30.27
2022-08-20T13:53:42.083Z,31.63
2022-08-20T13:56:13.658Z,25.85
2022-08-20T13:58:43.529Z,26.30
2022-08-20T14:01:13.184Z,24.00
2022-08-20T14:03:43.054Z,28.65
2022-08-20T14:06:12.845Z,18.20
2022-08-20T14:08:42.560Z,20.55
2022-08-20T14:11:12.809Z,22.02
2022-08-20T14:13:47.737Z,18.55
2022-08-20T14:16:25.276Z,20.65
2022-08-20T14:18:58.051Z,28.20
2022-08-20T14:21:28.291Z,19.73
2022-08-20T14:23:59.802Z,17.77
2022-08-20T14:26:33.776Z,22.10
2022-08-20T14:29:04.667Z,23.42
2022-08-20T14:31:34.410Z,24.90
2022-08-20T14:34:04.175Z,20.20
2022-08-20T14:36:34.060Z,20.27
2022-08-20T14:39:03.657Z,19.05
2022-08-20T14:41:33.335Z,17.95
2022-08-20T14:44:04.399Z,22.10
2022-08-20T14:46:35.335Z,18.35
2022-08-20T14:49:05.106Z,22.38
2022-08-20T14:51:34.923Z,18.08
2022-08-20T14:54:04.525Z,24.40
2022-08-20T14:56:34.066Z,22.80
2022-08-20T14:59:03.789Z,26.90
2022-08-20T15:01:33.407Z,23.90
2022-08-20T15:04:03.083Z,20.33
2022-08-20T15:06:34.600Z,30.17
2022-08-20T15:09:09.344Z,22.35
2022-08-20T15:11:41.373Z,17.15
2022-08-20T15:14:11.843Z,17.88
2022-08-20T15:16:45.608Z,17.98
2022-08-20T15:19:15.212Z,20.10
2022-08-20T15:21:45.865Z,20.88
2022-08-20T15:24:19.396Z,20.73
2022-08-20T15:26:49.343Z,19.25
2022-08-20T15:29:23.233Z,17.92
2022-08-20T15:31:53.512Z,17.40
2022-08-20T15:34:23.154Z,19.80
2022-08-20T15:36:52.731Z,19.48
2022-08-20T15:39:22.390Z,15.50
2022-08-20T15:41:51.973Z,26.83
2022-08-20T15:44:21.524Z,17.63
2022-08-20T15:46:51.137Z,21.30
2022-08-20T15:49:20.754Z,23.48
2022-08-20T15:51:50.659Z,19.40
2022-08-20T15:54:21.668Z,23.15
2022-08-20T15:56:51.299Z,21.92
2022-08-20T15:59:21.054Z,21.52
2022-08-20T16:01:50.836Z,22.55
2022-08-20T16:04:20.485Z,21.27
2022-08-20T16:06:50.162Z,28.17
2022-08-20T16:09:25.920Z,34.28
2022-08-20T16:12:27.760Z,36.85
2022-08-20T16:14:59.977Z,26.40
2022-08-20T16:17:49.531Z,28.55
2022-08-20T16:20:35.256Z,25.70
2022-08-20T16:23:05.703Z,31.58
2022-08-20T16:25:55.262Z,35.05
2022-08-20T16:28:25.983Z,34.50
2022-08-20T16:30:59.604Z,39.10
2022-08-20T16:33:32.179Z,39.25
2022-08-20T16:36:04.306Z,37.20
2022-08-20T16:38:49.171Z,39.72
2022-08-20T16:41:26.629Z,40.83
2022-08-20T16:43:58.051Z,35.17
2022-08-20T16:46:35.024Z,37.50
2022-08-20T16:49:12.550Z,42.53
2022-08-20T16:51:51.400Z,30.70
2022-08-20T16:54:29.716Z,33.85
2022-08-20T16:57:02.584Z,31.92
2022-08-20T16:59:32.274Z,33.17
2022-08-20T17:02:13.431Z,30.35
2022-08-20T17:04:57.855Z,38.67
2022-08-20T17:07:33.469Z,30.42
2022-08-20T17:10:15.850Z,33.00
2022-08-20T17:12:45.854Z,38.33
2022-08-20T17:15:29.453Z,33.28
2022-08-20T17:17:59.306Z,30.17
2022-08-20T17:20:29.719Z,40.05
2022-08-20T17:23:19.610Z,50.83
2022-08-20T17:25:57.222Z,46.53
2022-08-20T17:28:28.362Z,49.47
2022-08-20T17:30:59.628Z,44.50
2022-08-20T17:33:32.348Z,47.30
2022-08-20T17:36:03.325Z,39.90
2022-08-20T17:38:49.732Z,41.55
2022-08-20T17:41:33.622Z,43.63
2022-08-20T17:44:07.561Z,39.55
2022-08-20T17:46:38.526Z,39.70
2022-08-20T17:49:09.146Z,42.90
2022-08-20T17:51:45.143Z,41.70
2022-08-20T17:54:21.054Z,45.75
2022-08-20T17:56:50.503Z,41.53
2022-08-20T18:00:01.042Z,37.97
2022-08-20T18:02:31.948Z,40.58
2022-08-20T18:05:01.545Z,35.90
2022-08-20T18:07:37.739Z,37.15
2022-08-20T18:10:15.675Z,35.15
2022-08-20T18:12:52.666Z,40.97
2022-08-20T18:15:24.455Z,35.80
2022-08-20T18:17:54.518Z,39.78
2022-08-20T18:20:42.151Z,35.50
2022-08-20T18:23:17.557Z,33.40
2022-08-20T18:25:52.714Z,44.22
2022-08-20T18:28:23.659Z,40.08
2022-08-20T18:30:57.250Z,36.80
2022-08-20T18:33:31.676Z,42.50
2022-08-20T18:36:37.676Z,34.50
2022-08-20T18:39:07.519Z,41.50
2022-08-20T18:41:57.086Z,36.80
2022-08-20T18:44:30.907Z,39.92
2022-08-20T18:47:02.090Z,40.58
2022-08-20T18:49:36.655Z,44.15
2022-08-20T18:52:21.460Z,36.22
2022-08-20T18:55:10.707Z,36.42
2022-08-20T18:57:42.855Z,38.22
2022-08-20T19:00:14.686Z,40.45
2022-08-20T19:02:57.126Z,36.50
2022-08-20T19:05:41.756Z,41.40
2022-08-20T19:08:11.396Z,39.35
2022-08-20T19:10:44.227Z,40.50
2022-08-20T19:13:32.284Z,34.75
2022-08-20T19:16:03.963Z,31.88
2022-08-20T19:18:40.623Z,43.03
2022-08-20T19:21:15.876Z,37.55
2022-08-20T19:23:49.287Z,37.13
2022-08-20T19:26:25.266Z,35.45
2022-08-20T19:29:14.505Z,32.22
2022-08-20T19:31:44.153Z,37.35
2022-08-20T19:34:25.392Z,31.25
2022-08-20T19:37:05.200Z,37.63
2022-08-20T19:39:49.950Z,43.03
2022-08-20T19:42:20.751Z,41.20
2022-08-20T19:45:00.735Z,39.20
2022-08-20T19:47:33.322Z,36.97
2022-08-20T19:50:15.900Z,39.25
2022-08-20T19:52:48.766Z,41.00
2022-08-20T19:55:20.867Z,37.08
2022-08-20T19:57:54.364Z,43.50
2022-08-20T20:00:24.468Z,41.90
2022-08-20T20:02:54.068Z,43.65
2022-08-20T20:05:24.051Z,34.55
2022-08-20T20:07:54.993Z,34.92
2022-08-20T20:10:28.313Z,32.28
2022-08-20T20:13:00.367Z,31.73
2022-08-20T20:15:30.155Z,38.25
2022-08-20T20:18:00.969Z,43.55
2022-08-20T20:20:33.152Z,36.28
2022-08-20T20:23:15.098Z,44.55
2022-08-20T20:25:45.556Z,41.95
2022-08-20T20:28:25.904Z,46.75
2022-08-20T20:30:55.904Z,47.28
2022-08-20T20:33:38.961Z,44.05
2022-08-20T20:36:10.487Z,39.42
2022-08-20T20:38:41.197Z,39.17
2022-08-20T20:41:10.938Z,44.22
2022-08-20T20:43:41.617Z,38.20
2022-08-20T20:46:12.025Z,47.92
2022-08-20T20:48:43.781Z,46.17
2022-08-20T20:51:20.560Z,43.13
2022-08-20T20:53:54.727Z,43.72
2022-08-20T20:56:44.083Z,41.50
2022-08-20T20:59:14.029Z,42.08
2022-08-20T21:01:48.618Z,43.63
2022-08-20T21:04:21.669Z,45.95
2022-08-20T21:06:51.744Z,39.80
2022-08-20T21:09:21.290Z,44.28
2022-08-20T21:11:54.729Z,43.47
2022-08-20T21:14:24.463Z,44.28
2022-08-20T21:16:54.386Z,42.92
2022-08-20T21:19:24.327Z,43.33
2022-08-20T21:21:54.269Z,40.88
2022-08-20T21:24:24.153Z,38.58
2022-08-20T21:26:54.192Z,43.58
2022-08-20T21:29:28.112Z,45.20
2022-08-20T21:32:01.563Z,39.55
2022-08-20T21:34:31.378Z,41.05
2022-08-20T21:37:01.178Z,35.50
2022-08-20T21:39:31.373Z,42.60
2022-08-20T21:42:01.885Z,44.63
2022-08-20T21:44:33.027Z,41.70
2022-08-20T21:47:03.407Z,38.53
2022-08-20T21:49:33.497Z,35.92
2022-08-20T21:52:03.916Z,41.55
2022-08-20T21:54:34.523Z,41.25
2022-08-20T21:57:11.567Z,42.70
2022-08-20T21:59:41.645Z,41.58
2022-08-20T22:02:11.499Z,43.92
2022-08-20T22:04:41.416Z,43.85
2022-08-20T22:07:12.072Z,41.17
2022-08-20T22:09:44.305Z,37.15
2022-08-20T22:12:17.241Z,37.97
2022-08-20T22:14:47.206Z,40.50
2022-08-20T22:17:17.387Z,38.55
2022-08-20T22:19:47.244Z,33.80
2022-08-20T22:22:17.322Z,35.25
2022-08-20T22:24:47.172Z,35.88
2022-08-20T22:27:17.227Z,34.90
2022-08-20T22:29:46.920Z,27.27
2022-08-20T22:32:16.841Z,28.70
2022-08-20T22:34:48.929Z,28.45
2022-08-20T22:37:18.802Z,24.55
2022-08-20T22:39:48.744Z,26.00
2022-08-20T22:42:18.685Z,31.55
2022-08-20T22:44:48.596Z,26.15
2022-08-20T22:47:26.144Z,33.58
2022-08-20T22:49:55.973Z,30.98
2022-08-20T22:52:26.621Z,29.63
2022-08-20T22:54:56.560Z,32.40
2022-08-20T22:57:26.921Z,34.22
2022-08-20T22:59:57.191Z,29.50
2022-08-20T23:02:30.282Z,31.67
2022-08-20T23:04:59.949Z,31.58
2022-08-20T23:07:29.634Z,37.00
2022-08-20T23:09:59.503Z,33.15
2022-08-20T23:12:29.273Z,33.90
2022-08-20T23:14:59.177Z,32.85
2022-08-20T23:17:28.796Z,34.40
2022-08-20T23:19:58.843Z,35.00
2022-08-20T23:22:28.915Z,34.03
2022-08-20T23:25:00.531Z,32.67
2022-08-20T23:27:30.793Z,35.45
2022-08-20T23:30:00.972Z,33.83
2022-08-20T23:32:30.721Z,33.05
2022-08-20T23:35:00.335Z,34.25
2022-08-20T23:37:29.978Z,36.75
2022-08-20T23:39:59.571Z,36.00
2022-08-20T23:42:29.175Z,42.92
2022-08-20T23:44:58.986Z,36.38
2022-08-20T23:47:28.632Z,36.30
2022-08-20T23:49:58.391Z,35.38
2022-08-20T23:52:28.139Z,35.83
2022-08-20T23:54:58.388Z,37.50
2022-08-20T23:57:28.226Z,36.65
2022-08-20T23:59:58.783Z,35.78
